Time;durP1;ratioP1;P1;durP2;ratioP2;P2;SDS_P1;SDS_P2;PMS_P1;PMS_P2;Temp;Humidity;BMP_temperature;BMP_pressure;BME280_temperature;BME280_humidity;BME280_pressure;Samples;Min_cycle;Max_cycle;Signal;HPM_P1;HPM_P2
2023/02/03 00:00:11;;;;;;;1.30;1.20;;;;;;;2.29;63.65;100283.59;5094559;28;19920;-67
2023/02/03 00:02:40;;;;;;;0.50;0.50;;;;;;;2.31;63.68;100291.22;5093846;28;20052;-67
2023/02/03 00:05:09;;;;;;;0.40;0.40;;;;;;;2.33;64.17;100298.03;5094140;28;20044;-67
2023/02/03 00:07:40;;;;;;;0.30;0.30;;;;;;;2.32;64.55;100293.81;5094492;28;20047;-67
2023/02/03 00:10:09;;;;;;;0.52;0.52;;;;;;;2.37;64.16;100297.38;5094100;28;20055;-67
2023/02/03 00:12:38;;;;;;;;;;;;;;;2.36;63.62;100300.69;5094403;28;20055;-67
2023/02/03 00:15:08;;;;;;;0.40;0.40;;;;;;;2.36;63.63;100298.16;5094512;28;19920;-67
2023/02/03 00:17:38;;;;;;;0.40;0.40;;;;;;;2.33;63.51;100302.22;5094001;28;20051;-68
2023/02/03 00:20:07;;;;;;;0.32;0.32;;;;;;;2.28;63.48;100302.00;5094545;28;20385;-67
2023/02/03 00:22:36;;;;;;;0.47;0.47;;;;;;;2.27;63.40;100314.56;5093838;28;20051;-67
2023/02/03 00:25:06;;;;;;;0.70;0.70;;;;;;;2.27;63.18;100320.47;5093880;28;20043;-67
2023/02/03 00:27:34;;;;;;;0.38;0.38;;;;;;;2.26;62.85;100312.81;5094180;28;20036;-67
2023/02/03 00:30:04;;;;;;;1.47;1.37;;;;;;;2.21;63.39;100322.69;5109545;28;20039;-67
2023/02/03 00:32:32;;;;;;;0.38;0.38;;;;;;;2.21;63.68;100325.22;5092691;28;20078;-67
2023/02/03 00:35:03;;;;;;;0.70;0.55;;;;;;;2.21;63.22;100329.41;5093281;28;20056;-67
2023/02/03 00:37:31;;;;;;;0.30;0.30;;;;;;;2.20;63.92;100333.59;5092783;28;20429;-68
2023/02/03 00:40:02;;;;;;;0.40;0.40;;;;;;;2.20;63.14;100331.06;5093748;28;20501;-67
2023/02/03 00:42:32;;;;;;;0.30;0.30;;;;;;;2.17;63.97;100338.47;5094238;28;20520;-67
2023/02/03 00:45:01;;;;;;;0.30;0.30;;;;;;;2.09;64.06;100337.28;5093903;28;20044;-67
2023/02/03 00:47:29;;;;;;;3.50;2.10;;;;;;;2.06;63.96;100339.69;5092424;28;20311;-67
2023/02/03 00:49:58;;;;;;;0.50;0.50;;;;;;;2.02;64.26;100335.28;5093679;28;20089;-68
2023/02/03 00:52:28;;;;;;;0.35;0.35;;;;;;;2.01;63.62;100347.03;5094221;28;20391;-67
2023/02/03 00:54:57;;;;;;;0.60;0.60;;;;;;;1.99;63.98;100342.72;5092365;28;20548;-67
2023/02/03 00:57:25;;;;;;;0.47;0.47;;;;;;;1.94;64.24;100349.22;5093404;28;20044;-66
2023/02/03 00:59:54;;;;;;;0.40;0.40;;;;;;;1.95;63.74;100353.44;5093839;28;20122;-67
2023/02/03 01:02:23;;;;;;;0.38;0.38;;;;;;;1.98;63.72;100356.09;5093251;28;20048;-67
2023/02/03 01:04:53;;;;;;;0.95;0.85;;;;;;;1.94;64.06;100350.06;5094016;28;20397;-67
2023/02/03 01:07:22;;;;;;;0.50;0.50;;;;;;;1.90;63.65;100348.22;5093801;28;20131;-67
2023/02/03 01:09:52;;;;;;;0.33;0.33;;;;;;;1.89;63.97;100350.66;5093450;28;20130;-67
2023/02/03 01:12:20;;;;;;;1.65;1.30;;;;;;;1.84;64.44;100344.56;5126536;28;20264;-67
2023/02/03 01:14:49;;;;;;;0.30;0.30;;;;;;;1.74;64.35;100335.75;5092153;28;20071;-67
2023/02/03 01:17:18;;;;;;;0.60;0.60;;;;;;;1.77;64.68;100345.09;5093350;28;20131;-67
2023/02/03 01:19:47;;;;;;;2.35;1.25;;;;;;;1.77;64.47;100340.94;5093360;28;20036;-67
2023/02/03 01:22:17;;;;;;;1.13;1.02;;;;;;;1.74;64.91;100344.94;5093348;28;20490;-67
2023/02/03 01:24:46;;;;;;;0.25;0.25;;;;;;;1.75;64.40;100344.16;5126213;28;20046;-67
2023/02/03 01:27:16;;;;;;;0.30;0.30;;;;;;;1.73;64.63;100339.03;5093206;28;20051;-67
2023/02/03 01:29:45;;;;;;;0.20;0.20;;;;;;;1.72;64.52;100342.38;5093317;28;20044;-67
2023/02/03 01:32:14;;;;;;;0.40;0.40;;;;;;;1.71;64.32;100349.84;5093513;28;20032;-67
2023/02/03 01:34:42;;;;;;;0.30;0.30;;;;;;;1.69;63.99;100347.25;5093202;28;20036;-67
2023/02/03 01:37:13;;;;;;;0.40;0.40;;;;;;;1.69;64.00;100353.94;5093031;28;20045;-67
2023/02/03 01:39:42;;;;;;;0.55;0.55;;;;;;;1.69;64.03;100358.97;5091988;28;20060;-67
2023/02/03 01:42:14;;;;;;;0.40;0.40;;;;;;;1.67;63.76;100358.91;5093152;28;20063;-67
2023/02/03 01:44:48;;;;;;;0.40;0.40;;;;;;;1.67;63.35;100368.09;5093024;28;20040;-67
2023/02/03 01:47:27;;;;;;;0.30;0.30;;;;;;;1.64;64.30;100363.78;5096799;28;20489;-67
2023/02/03 01:50:06;;;;;;;0.40;0.40;;;;;;;1.66;63.66;100362.22;5096831;28;20047;-67
2023/02/03 01:52:36;;;;;;;0.65;0.65;;;;;;;1.62;63.90;100354.47;5096720;28;20051;-67
2023/02/03 01:55:10;;;;;;;2.15;1.05;;;;;;;1.67;64.66;100368.09;5097020;28;20040;-67
2023/02/03 01:57:47;;;;;;;0.50;0.50;;;;;;;1.62;64.57;100364.50;5095232;28;20130;-67
2023/02/03 02:00:18;;;;;;;0.28;0.28;;;;;;;1.57;64.23;100355.91;5095403;28;20040;-67
2023/02/03 02:02:48;;;;;;;0.45;0.45;;;;;;;1.59;64.34;100355.19;5096470;28;20135;-67
2023/02/03 02:05:25;;;;;;;0.40;0.40;;;;;;;1.57;64.66;100355.91;5095677;28;20051;-67
2023/02/03 02:07:56;;;;;;;0.40;0.40;;;;;;;1.54;64.59;100350.72;5096662;28;20396;-67
2023/02/03 02:10:26;;;;;;;0.30;0.30;;;;;;;1.50;64.75;100346.34;5096743;28;20055;-67
2023/02/03 02:12:57;;;;;;;0.20;0.20;;;;;;;1.40;65.20;100341.69;5095159;28;20134;-67
2023/02/03 02:15:40;;;;;;;0.60;0.60;;;;;;;1.46;65.34;100352.03;5095195;28;20547;-67
2023/02/03 02:18:27;;;;;;;0.40;0.40;;;;;;;1.38;65.66;100344.13;5096556;28;20046;-68
2023/02/03 02:21:18;;;;;;;0.30;0.30;;;;;;;1.36;65.14;100345.72;5096202;28;20055;-67
2023/02/03 02:24:12;;;;;;;0.40;0.40;;;;;;;1.29;65.84;100349.63;5096195;28;20044;-67
2023/02/03 02:27:05;;;;;;;0.45;0.45;;;;;;;1.23;66.11;100339.25;5091780;28;20074;-67
2023/02/03 02:29:56;;;;;;;0.40;0.40;;;;;;;1.16;66.14;100336.38;5076381;28;20074;-68
2023/02/03 02:32:46;;;;;;;0.32;0.32;;;;;;;1.04;65.92;100336.69;5096310;28;20040;-67
2023/02/03 02:35:26;;;;;;;1.42;1.33;;;;;;;0.99;66.86;100342.25;5094784;28;20075;-67
2023/02/03 02:38:03;;;;;;;0.85;0.85;;;;;;;0.98;66.74;100346.47;5095657;28;20040;-67
2023/02/03 02:40:42;;;;;;;1.50;1.20;;;;;;;0.95;67.18;100341.28;5095850;28;20134;-67
2023/02/03 02:43:19;;;;;;;0.30;0.30;;;;;;;0.94;66.37;100343.69;5095763;28;20052;-67
2023/02/03 02:45:51;;;;;;;0.40;0.40;;;;;;;0.88;66.67;100353.47;5095761;28;20052;-67
2023/02/03 02:48:27;;;;;;;22.48;1.85;;;;;;;0.84;66.88;100349.94;5095915;28;20052;-67
2023/02/03 02:50:59;;;;;;;0.65;0.65;;;;;;;0.88;66.81;100349.31;5077805;28;20051;-67
2023/02/03 02:53:33;;;;;;;0.30;0.30;;;;;;;0.80;66.86;100350.59;5094598;28;20146;-67
2023/02/03 02:56:07;;;;;;;0.40;0.40;;;;;;;0.70;67.14;100352.59;5094546;28;20044;-67
2023/02/03 02:58:43;;;;;;;0.50;0.50;;;;;;;0.62;67.88;100359.75;5094113;28;20094;-68
2023/02/03 03:01:14;;;;;;;0.68;0.68;;;;;;;0.56;67.85;100354.41;5094033;28;20482;-68
2023/02/03 03:03:45;;;;;;;0.40;0.40;;;;;;;0.51;68.20;100354.19;5111523;28;20382;-68
2023/02/03 03:06:20;;;;;;;0.60;0.60;;;;;;;0.47;68.79;100353.94;5095272;28;20056;-68
2023/02/03 03:08:56;;;;;;;0.47;0.47;;;;;;;0.40;68.77;100341.88;5094086;28;20101;-68
2023/02/03 03:11:28;;;;;;;0.50;0.50;;;;;;;0.38;68.55;100348.47;5095229;28;20122;-68
2023/02/03 03:13:59;;;;;;;0.50;0.50;;;;;;;0.33;69.42;100352.41;5095478;28;20481;-68
2023/02/03 03:16:29;;;;;;;;;;;;;;;0.34;69.49;100354.13;5095452;28;20044;-68
2023/02/03 03:19:03;;;;;;;0.30;0.30;;;;;;;0.32;69.69;100340.63;5095373;28;19985;-68
2023/02/03 03:21:37;;;;;;;0.30;0.30;;;;;;;0.29;69.25;100343.00;5095010;28;20075;-68
2023/02/03 03:24:10;;;;;;;0.40;0.40;;;;;;;0.23;69.76;100331.00;5094973;28;20059;-68
2023/02/03 03:26:46;;;;;;;0.40;0.40;;;;;;;0.20;69.68;100332.47;5095479;28;20047;-68
2023/02/03 03:29:21;;;;;;;0.30;0.30;;;;;;;0.15;70.33;100328.88;5094808;28;20056;-68
2023/02/03 03:31:50;;;;;;;0.30;0.30;;;;;;;0.16;70.59;100325.59;5094778;28;20040;-68
2023/02/03 03:34:20;;;;;;;0.50;0.50;;;;;;;0.17;70.51;100333.19;5093771;28;20429;-67
2023/02/03 03:36:58;;;;;;;0.55;0.55;;;;;;;0.20;70.70;100329.97;5093716;28;20052;-68
2023/02/03 03:39:34;;;;;;;0.40;0.40;;;;;;;0.24;70.99;100334.38;5094660;28;20048;-67
2023/02/03 03:42:12;;;;;;;0.60;0.60;;;;;;;0.27;70.97;100325.34;5094554;28;20051;-67
2023/02/03 03:44:53;;;;;;;0.88;0.88;;;;;;;0.32;70.96;100328.06;5094611;28;20056;-67
2023/02/03 03:47:28;;;;;;;0.45;0.45;;;;;;;0.27;70.68;100322.84;5094580;28;20093;-68
2023/02/03 03:50:01;;;;;;;0.57;0.57;;;;;;;0.35;70.35;100328.25;5094499;28;20044;-67
2023/02/03 03:52:34;;;;;;;0.30;0.30;;;;;;;0.33;70.33;100317.25;5094402;28;20120;-67
2023/02/03 03:55:08;;;;;;;0.60;0.60;;;;;;;0.35;70.46;100334.13;5094443;28;20052;-67
2023/02/03 03:57:41;;;;;;;0.60;0.60;;;;;;;0.36;70.08;100340.03;5094778;28;20066;-67
2023/02/03 04:00:15;;;;;;;0.50;0.50;;;;;;;0.36;70.12;100345.03;5094648;28;20036;-67
2023/02/03 04:02:51;;;;;;;0.50;0.50;;;;;;;0.40;70.02;100336.84;5093975;28;20442;-67
2023/02/03 04:05:23;;;;;;;0.70;0.70;;;;;;;0.44;70.30;100343.75;5094167;28;20048;-67
2023/02/03 04:07:51;;;;;;;0.73;0.73;;;;;;;0.44;70.19;100341.25;5094834;28;20420;-67
2023/02/03 04:10:29;;;;;;;0.30;0.30;;;;;;;0.45;70.36;100335.44;5094100;28;20082;-67
2023/02/03 04:12:58;;;;;;;0.85;0.85;;;;;;;0.46;70.51;100322.09;5093999;28;20490;-68
2023/02/03 04:15:27;;;;;;;3.85;1.23;;;;;;;0.49;70.48;100333.16;5094311;28;20040;-68
2023/02/03 04:17:57;;;;;;;0.70;0.70;;;;;;;0.55;70.81;100322.56;5093920;28;20133;-67
2023/02/03 04:20:27;;;;;;;0.40;0.40;;;;;;;0.58;70.44;100315.16;5094224;28;20028;-67
2023/02/03 04:22:57;;;;;;;1.23;1.10;;;;;;;0.56;70.66;100324.25;5093862;28;20040;-68
2023/02/03 04:25:26;;;;;;;0.73;0.73;;;;;;;0.56;70.17;100319.25;5093820;28;20047;-67
2023/02/03 04:27:55;;;;;;;2.85;2.63;;;;;;;0.56;70.55;100319.25;5093820;28;20047;-67
2023/02/03 04:30:24;;;;;;;0.40;0.40;;;;;;;0.57;70.32;100309.28;5093850;28;20077;-67
2023/02/03 04:32:54;;;;;;;1.58;1.48;;;;;;;0.57;71.00;100316.84;5093675;28;20055;-67
2023/02/03 04:35:22;;;;;;;1.57;1.20;;;;;;;0.54;71.22;100318.31;5094054;28;20494;-67
2023/02/03 04:37:53;;;;;;;0.73;0.73;;;;;;;0.53;71.13;100314.06;5093685;28;20047;-67
2023/02/03 04:40:21;;;;;;;7.18;4.32;;;;;;;0.61;71.22;100317.81;5093728;28;20051;-67
2023/02/03 04:42:50;;;;;;;4.82;2.17;;;;;;;0.58;71.27;100307.63;5093606;28;20039;-67
2023/02/03 04:45:19;;;;;;;2.00;1.88;;;;;;;0.50;71.39;100311.44;5093584;28;20525;-66
2023/02/03 04:47:52;;;;;;;3.92;3.38;;;;;;;0.46;71.01;100296.97;5093944;28;20079;-67
2023/02/03 04:50:22;;;;;;;5.72;2.53;;;;;;;0.48;71.12;100296.28;5093940;28;20421;-67
2023/02/03 04:52:52;;;;;;;0.80;0.80;;;;;;;0.49;70.26;100302.16;5093911;28;20413;-67
2023/02/03 04:55:21;;;;;;;0.45;0.45;;;;;;;0.49;70.24;100302.16;5093862;28;20048;-67
2023/02/03 04:57:49;;;;;;;0.85;0.85;;;;;;;0.48;69.90;100300.47;5093455;28;20040;-67
2023/02/03 05:00:19;;;;;;;0.77;0.60;;;;;;;0.56;70.52;100304.19;5093500;28;20085;-67
2023/02/03 05:02:47;;;;;;;1.30;1.20;;;;;;;0.52;69.92;100302.31;5093282;28;20131;-67
2023/02/03 05:05:16;;;;;;;3.53;1.90;;;;;;;0.50;70.91;100298.88;5093385;28;20052;-67
2023/02/03 05:07:45;;;;;;;0.73;0.73;;;;;;;0.50;71.23;100302.25;5093987;28;20288;-67
2023/02/03 05:10:16;;;;;;;0.30;0.30;;;;;;;0.46;72.26;100302.00;5093418;28;20118;-67
2023/02/03 05:12:44;;;;;;;0.35;0.35;;;;;;;0.39;72.31;100305.00;5093403;28;20291;-67
2023/02/03 05:15:13;;;;;;;0.50;0.50;;;;;;;0.39;73.12;100305.00;5093310;28;20043;-67
2023/02/03 05:17:42;;;;;;;0.65;0.65;;;;;;;0.40;73.18;100306.75;5093248;28;20501;-67
2023/02/03 05:20:12;;;;;;;0.63;0.63;;;;;;;0.40;73.80;100306.75;5095248;28;20040;-67
2023/02/03 05:22:41;;;;;;;0.43;0.43;;;;;;;0.37;74.44;100296.53;5097263;28;20044;-67
2023/02/03 05:25:10;;;;;;;1.13;1.13;;;;;;;0.31;74.49;100283.69;5097216;28;20153;-67
2023/02/03 05:27:41;;;;;;;1.40;1.27;;;;;;;0.36;74.67;100293.16;5097529;28;20064;-67
2023/02/03 05:30:11;;;;;;;1.48;1.38;;;;;;;0.33;74.84;100299.69;5097511;28;20051;-67
2023/02/03 05:32:40;;;;;;;1.30;1.20;;;;;;;0.32;74.72;100292.94;5097136;28;20048;-67
2023/02/03 05:35:12;;;;;;;1.05;0.98;;;;;;;0.33;75.34;100292.16;5096990;28;20051;-67
2023/02/03 05:37:40;;;;;;;1.48;1.38;;;;;;;0.25;75.55;100285.88;5096999;28;20040;-66
2023/02/03 05:42:50;;;;;;;0.93;0.93;;;;;;;0.17;76.08;100292.19;5096932;28;20126;-67
2023/02/03 05:45:19;;;;;;;0.50;0.50;;;;;;;0.24;76.10;100284.19;5096825;28;20490;-67
2023/02/03 05:47:47;;;;;;;0.40;0.40;;;;;;;0.23;75.68;100283.31;5096835;28;20036;-67
2023/02/03 05:50:16;;;;;;;10.03;1.60;;;;;;;0.25;75.45;100273.34;5096690;28;20068;-67
2023/02/03 05:52:45;;;;;;;1.85;1.75;;;;;;;0.24;75.56;100259.09;5096957;28;20634;-67
2023/02/03 05:55:14;;;;;;;1.20;1.13;;;;;;;0.23;75.51;100258.22;5096789;28;20044;-66
2023/02/03 05:57:43;;;;;;;4.60;2.78;;;;;;;0.20;75.87;100257.19;5096615;28;20043;-66
2023/02/03 06:00:14;;;;;;;2.57;1.80;;;;;;;0.15;75.93;100254.47;5096472;28;20050;-66
2023/02/03 06:02:43;;;;;;;3.80;2.38;;;;;;;0.15;76.09;100264.50;5096362;28;20056;-67
2023/02/03 06:05:12;;;;;;;1.58;1.48;;;;;;;0.12;76.32;100261.00;5096473;28;20040;-67
2023/02/03 06:07:41;;;;;;;2.50;2.35;;;;;;;0.20;76.24;100257.19;5096343;28;20082;-67
2023/02/03 06:10:10;;;;;;;1.25;1.17;;;;;;;0.15;76.18;100256.09;5096427;28;20048;-67
2023/02/03 06:12:39;;;;;;;4.78;2.30;;;;;;;0.13;76.45;100265.22;5096183;28;20458;-67
2023/02/03 06:15:09;;;;;;;0.40;0.40;;;;;;;0.13;76.96;100255.16;5097068;28;20040;-67
2023/02/03 06:17:39;;;;;;;0.45;0.45;;;;;;;0.23;76.79;100257.34;5096722;28;20286;-67
2023/02/03 06:20:11;;;;;;;1.10;1.05;;;;;;;0.27;77.21;100264.22;5096119;28;20040;-67
2023/02/03 06:22:40;;;;;;;0.90;0.90;;;;;;;0.32;77.46;100265.31;5096372;28;20051;-67
2023/02/03 06:25:10;;;;;;;0.27;0.27;;;;;;;0.28;76.89;100241.75;5095991;28;20127;-67
2023/02/03 06:27:41;;;;;;;1.15;1.05;;;;;;;0.27;77.40;100244.16;5096080;28;20623;-67
2023/02/03 06:30:11;;;;;;;0.90;0.90;;;;;;;0.29;77.22;100248.47;5095830;28;20486;-67
2023/02/03 06:32:41;;;;;;;0.50;0.50;;;;;;;0.31;77.14;100244.38;5096073;28;20066;-67
2023/02/03 06:35:10;;;;;;;0.35;0.35;;;;;;;0.36;77.09;100237.09;5096189;28;20401;-66
2023/02/03 06:37:39;;;;;;;1.63;0.83;;;;;;;0.40;77.36;100243.97;5095846;28;20040;-66
2023/02/03 06:40:10;;;;;;;0.90;0.90;;;;;;;0.36;77.39;100229.56;5095819;28;20048;-66
2023/02/03 06:42:38;;;;;;;0.35;0.35;;;;;;;0.51;77.77;100230.28;5095804;28;20105;-66
2023/02/03 06:45:08;;;;;;;0.60;0.60;;;;;;;0.34;77.63;100206.00;5095669;28;20046;-66
2023/02/03 06:47:39;;;;;;;;;;;;;;;0.47;77.53;100228.41;5096014;28;20059;-66
2023/02/03 06:50:11;;;;;;;0.52;0.52;;;;;;;0.44;77.35;100225.75;5095694;28;19920;-66
2023/02/03 06:52:40;;;;;;;0.50;0.50;;;;;;;0.33;77.43;100224.38;5095616;28;20056;-66
2023/02/03 06:55:10;;;;;;;0.87;0.87;;;;;;;0.27;77.45;100224.06;5096144;28;20500;-67
2023/02/03 06:57:44;;;;;;;0.80;0.80;;;;;;;0.27;78.46;100219.06;5095451;28;20047;-66
2023/02/03 07:00:15;;;;;;;9.45;7.43;;;;;;;0.30;78.50;100219.22;5095740;28;20116;-66
2023/02/03 07:02:47;;;;;;;7.85;7.13;;;;;;;0.29;78.37;100227.56;5095065;28;20048;-66
2023/02/03 07:05:17;;;;;;;7.75;4.30;;;;;;;0.29;78.45;100227.56;5095273;28;20044;-66
2023/02/03 07:07:46;;;;;;;2.40;1.92;;;;;;;0.30;78.58;100219.22;5095304;28;20063;-66
2023/02/03 07:10:14;;;;;;;0.88;0.88;;;;;;;0.31;79.17;100220.94;5095497;28;20390;-66
2023/02/03 07:12:43;;;;;;;0.73;0.73;;;;;;;0.36;79.04;100227.06;5095155;28;20051;-66
2023/02/03 07:15:13;;;;;;;0.60;0.60;;;;;;;0.40;79.25;100236.44;5095116;28;20051;-66
2023/02/03 07:17:41;;;;;;;;;;;;;;;0.42;79.53;100244.91;5095481;28;20040;-66
2023/02/03 07:20:11;;;;;;;0.50;0.50;;;;;;;0.42;79.38;100232.34;5094922;28;19928;-66
2023/02/03 07:22:42;;;;;;;;;;;;;;;0.49;80.12;100236.88;5095341;28;20044;-66
2023/02/03 07:25:11;;;;;;;1.83;1.70;;;;;;;0.55;80.01;100235.50;5095169;28;19924;-66
2023/02/03 07:27:40;;;;;;;1.00;1.00;;;;;;;0.58;80.17;100230.66;5094811;28;20089;-66
2023/02/03 07:30:10;;;;;;;1.23;1.13;;;;;;;0.62;79.87;100214.09;5095075;28;20486;-66
2023/02/03 07:32:39;;;;;;;0.75;0.75;;;;;;;0.64;80.26;100212.50;5094711;28;20108;-66
2023/02/03 07:35:08;;;;;;;0.53;0.53;;;;;;;0.63;79.98;100210.78;5095110;28;20440;-66
2023/02/03 07:37:36;;;;;;;;;;;;;;;0.68;80.76;100204.31;5095011;28;20123;-66
2023/02/03 07:40:07;;;;;;;0.40;0.40;;;;;;;0.72;80.93;100205.34;5094736;28;19923;-66
2023/02/03 07:42:36;;;;;;;1.13;1.02;;;;;;;0.73;80.09;100207.91;5094377;28;20121;-66
2023/02/03 07:45:05;;;;;;;1.17;1.10;;;;;;;0.70;80.26;100206.91;5094810;28;20048;-67
2023/02/03 07:47:34;;;;;;;0.40;0.40;;;;;;;0.65;80.95;100199.16;5094796;28;20044;-67
2023/02/03 07:50:03;;;;;;;1.42;1.33;;;;;;;0.63;81.02;100200.72;5094938;28;20052;-66
2023/02/03 07:52:32;;;;;;;0.60;0.60;;;;;;;0.66;80.44;100198.38;5094472;28;20067;-66
2023/02/03 07:55:01;;;;;;;1.00;0.97;;;;;;;0.59;80.78;100196.38;5094211;28;20048;-67
2023/02/03 07:57:31;;;;;;;0.40;0.40;;;;;;;0.49;80.97;100200.09;5094341;28;20045;-66
2023/02/03 08:04:16;;;;;;;0.70;0.70;;;;;;;0.60;81.73;100195.59;5074203;28;20095;-66
2023/02/03 08:06:45;;;;;;;1.20;1.10;;;;;;;0.64;81.42;100207.47;5075937;28;20495;-66
2023/02/03 08:09:13;;;;;;;0.50;0.50;;;;;;;0.61;81.28;100199.81;5093981;28;20040;-66
2023/02/03 08:11:42;;;;;;;1.03;1.03;;;;;;;0.57;81.70;100200.47;5094633;28;20038;-65
2023/02/03 08:14:12;;;;;;;1.10;1.08;;;;;;;0.58;80.95;100192.13;5093882;28;20047;-65
2023/02/03 08:16:41;;;;;;;0.20;0.20;;;;;;;0.60;81.54;100190.56;5093255;28;20044;-65
2023/02/03 08:19:10;;;;;;;0.47;0.47;;;;;;;0.56;81.02;100188.69;5093850;28;20044;-65
2023/02/03 08:21:39;;;;;;;0.40;0.40;;;;;;;0.57;81.92;100185.38;5092597;28;20052;-65
2023/02/03 08:24:08;;;;;;;1.10;0.93;;;;;;;0.52;81.68;100181.81;5092579;28;20059;-65
2023/02/03 08:26:37;;;;;;;1.35;1.25;;;;;;;0.52;82.07;100169.25;5089278;28;20102;-65
2023/02/03 08:29:06;;;;;;;0.40;0.40;;;;;;;0.51;81.79;100170.03;5073604;28;20393;-64
2023/02/03 08:31:37;;;;;;;0.80;0.80;;;;;;;0.47;82.44;100170.69;5073350;28;20040;-65
2023/02/03 08:34:06;;;;;;;0.47;0.47;;;;;;;0.46;82.60;100171.47;5073915;28;20040;-65
2023/02/03 08:36:38;;;;;;;0.40;0.40;;;;;;;0.42;82.37;100169.59;5073474;28;20044;-65
2023/02/03 08:39:08;;;;;;;0.47;0.47;;;;;;;0.37;82.87;100159.34;5073561;28;20056;-65
2023/02/03 08:41:40;;;;;;;0.57;0.57;;;;;;;0.44;83.28;100152.94;5083023;28;20447;-65
2023/02/03 08:44:09;;;;;;;1.03;1.03;;;;;;;0.53;83.79;100150.88;5093472;28;20135;-65
2023/02/03 08:46:43;;;;;;;0.57;0.57;;;;;;;0.54;83.10;100137.53;5087142;28;20375;-64
2023/02/03 08:49:12;;;;;;;5.25;3.55;;;;;;;0.59;83.37;100138.59;5087251;28;20044;-64
2023/02/03 08:51:41;;;;;;;0.88;0.88;;;;;;;0.60;83.19;100133.66;5093772;28;20090;-64
2023/02/03 08:54:10;;;;;;;0.45;0.45;;;;;;;0.63;83.73;100125.38;5094009;28;20565;-65
2023/02/03 08:56:39;;;;;;;1.40;1.30;;;;;;;0.69;83.54;100115.63;5097743;28;20127;-64
2023/02/03 08:59:08;;;;;;;;;;;;;;;0.75;84.28;100110.88;5098004;28;20413;-64
2023/02/03 09:01:39;;;;;;;0.57;0.57;;;;;;;0.78;83.99;100116.03;5097324;28;19919;-64
2023/02/03 09:04:10;;;;;;;0.38;0.38;;;;;;;0.81;84.61;100106.13;5097644;28;20055;-63
2023/02/03 09:06:40;;;;;;;0.77;0.77;;;;;;;0.86;84.83;100104.69;5095717;28;20134;-64
2023/02/03 09:09:09;;;;;;;0.98;0.98;;;;;;;0.96;84.90;100116.84;5098139;28;20063;-64
2023/02/03 09:11:38;;;;;;;1.73;1.63;;;;;;;0.89;84.58;100096.44;5097371;28;20127;-63
2023/02/03 09:14:06;;;;;;;2.50;1.52;;;;;;;0.95;84.84;100100.06;5097505;28;20043;-64
2023/02/03 09:16:36;;;;;;;1.47;1.37;;;;;;;1.02;84.90;100091.13;5097822;28;20040;-63
2023/02/03 09:19:04;;;;;;;0.40;0.40;;;;;;;1.00;84.66;100091.09;5097385;28;20059;-63
2023/02/03 09:21:35;;;;;;;0.93;0.93;;;;;;;1.04;84.38;100107.13;5097179;28;20044;-63
2023/02/03 09:24:12;;;;;;;0.60;0.60;;;;;;;1.01;84.50;100090.28;5097689;28;20048;-63
2023/02/03 09:26:40;;;;;;;0.40;0.40;;;;;;;0.99;85.39;100101.03;5097569;28;20115;-63
2023/02/03 09:29:09;;;;;;;0.60;0.60;;;;;;;0.97;85.33;100103.50;5097051;28;20070;-63
2023/02/03 09:31:38;;;;;;;0.40;0.40;;;;;;;0.99;85.70;100091.88;5097498;28;20089;-63
2023/02/03 09:34:07;;;;;;;0.57;0.57;;;;;;;1.01;85.32;100079.38;5096914;28;20094;-63
2023/02/03 09:36:38;;;;;;;0.68;0.68;;;;;;;1.04;85.41;100074.47;5097102;28;20123;-63
2023/02/03 09:39:08;;;;;;;0.55;0.55;;;;;;;1.05;85.46;100066.16;5097029;28;20101;-63
2023/02/03 09:42:02;;;;;;;1.73;1.30;;;;;;;1.01;85.93;100067.66;5088017;28;20044;-63
2023/02/03 09:44:42;;;;;;;1.75;1.35;;;;;;;1.00;85.73;100070.97;5085986;28;20497;-63
2023/02/03 09:47:16;;;;;;;0.55;0.55;;;;;;;1.02;86.11;100050.94;5093507;28;20047;-64
2023/02/03 09:49:50;;;;;;;1.02;0.98;;;;;;;1.07;85.29;100057.03;5083289;28;20121;-63
2023/02/03 09:52:25;;;;;;;0.80;0.80;;;;;;;1.02;85.54;100049.28;5080863;28;20068;-63
2023/02/03 09:54:58;;;;;;;0.50;0.50;;;;;;;1.11;85.24;100042.13;5079397;28;20085;-65
2023/02/03 09:57:29;;;;;;;2.47;2.15;;;;;;;1.06;85.41;100037.69;5087249;28;20040;-64
2023/02/03 10:00:02;;;;;;;0.75;0.75;;;;;;;1.06;86.29;100033.53;5076644;28;20066;-64
2023/02/03 10:02:46;;;;;;;0.70;0.70;;;;;;;1.03;86.01;100040.09;5084058;28;20052;-64
2023/02/03 10:05:22;;;;;;;1.10;1.00;;;;;;;0.96;86.46;100021.38;5082773;28;20117;-64
2023/02/03 10:08:03;;;;;;;0.98;0.98;;;;;;;0.89;86.38;100021.06;5085724;28;20079;-65
2023/02/03 10:10:39;;;;;;;1.42;1.08;;;;;;;0.98;86.02;100014.78;5076016;28;20070;-65
2023/02/03 10:13:23;;;;;;;0.98;0.98;;;;;;;1.03;86.18;100008.28;5076127;28;20056;-66
2023/02/03 10:16:16;;;;;;;1.33;0.68;;;;;;;1.03;87.04;100008.28;5076566;28;20040;-66
2023/02/03 10:18:51;;;;;;;2.40;1.75;;;;;;;0.93;86.55;100000.31;5093116;28;20047;-66
2023/02/03 10:21:29;;;;;;;1.30;1.20;;;;;;;0.92;86.45;100001.09;5096003;28;20040;-66
2023/02/03 10:24:02;;;;;;;0.90;0.90;;;;;;;0.96;86.46;99995.41;5096073;28;20101;-66
2023/02/03 10:26:31;;;;;;;0.98;0.95;;;;;;;1.02;87.06;99995.66;5096434;28;20490;-66
2023/02/03 10:29:08;;;;;;;0.32;0.32;;;;;;;1.10;86.87;99985.16;5096012;28;20052;-67
2023/02/03 10:31:37;;;;;;;0.40;0.40;;;;;;;1.19;87.45;99985.50;5093926;28;20044;-67
2023/02/03 10:34:10;;;;;;;;;;;;;;;1.19;86.99;99985.50;5086271;28;20037;-65
2023/02/03 10:36:52;;;;;;;2.10;1.90;;;;;;;1.24;87.19;99974.00;5075940;28;19928;-66
2023/02/03 10:39:32;;;;;;;0.75;0.75;;;;;;;1.23;87.88;99962.22;5075788;28;20131;-66
2023/02/03 10:42:02;;;;;;;0.38;0.38;;;;;;;1.30;87.23;99973.38;5084751;28;20040;-66
2023/02/03 10:44:37;;;;;;;3.78;2.25;;;;;;;1.31;87.25;99965.91;5078182;28;20079;-67
2023/02/03 10:47:24;;;;;;;0.52;0.52;;;;;;;1.31;87.34;99960.88;5075419;28;20114;-67
2023/02/03 10:49:56;;;;;;;0.68;0.65;;;;;;;1.34;87.56;99942.53;5075721;28;20051;-67
2023/02/03 10:52:29;;;;;;;0.47;0.47;;;;;;;1.40;87.61;99946.94;5086521;28;20450;-67
2023/02/03 10:54:59;;;;;;;0.28;0.28;;;;;;;1.43;88.32;99929.47;5075653;28;20048;-67
2023/02/03 10:57:30;;;;;;;1.30;1.27;;;;;;;1.47;88.19;99923.75;5075207;28;20058;-67
2023/02/03 11:00:19;;;;;;;0.85;0.82;;;;;;;1.57;88.20;99923.31;5075537;28;20395;-68
2023/02/03 11:02:56;;;;;;;1.35;1.25;;;;;;;1.63;87.97;99911.00;5074849;28;20061;-68
2023/02/03 11:05:26;;;;;;;0.50;0.50;;;;;;;1.73;88.23;99910.50;5075051;28;20044;-68
2023/02/03 11:07:56;;;;;;;3.25;2.13;;;;;;;1.81;88.12;99899.09;5079466;28;20066;-68
2023/02/03 11:10:35;;;;;;;0.70;0.70;;;;;;;1.84;88.78;99881.59;5088672;28;20493;-68
2023/02/03 11:13:18;;;;;;;0.57;0.57;;;;;;;1.86;88.24;99874.97;5094712;28;20048;-68
2023/02/03 11:15:55;;;;;;;2.95;2.13;;;;;;;1.91;88.80;99865.91;5094066;28;20043;-68
2023/02/03 11:18:41;;;;;;;1.27;1.17;;;;;;;1.89;88.14;99849.91;5087775;28;20044;-70
2023/02/03 11:21:13;;;;;;;0.95;0.90;;;;;;;1.86;88.25;99849.78;5094925;28;20413;-68
2023/02/03 11:23:50;;;;;;;2.58;1.63;;;;;;;1.80;87.88;99850.41;5094935;28;20046;-68
2023/02/03 11:26:24;;;;;;;3.72;1.63;;;;;;;1.74;88.62;99846.84;5094960;28;20075;-69
2023/02/03 11:28:57;;;;;;;0.80;0.80;;;;;;;1.67;88.49;99837.34;5093884;28;20497;-68
2023/02/03 11:31:27;;;;;;;0.98;0.90;;;;;;;1.65;88.11;99836.44;5089036;28;20102;-68
2023/02/03 11:34:00;;;;;;;0.75;0.60;;;;;;;1.71;88.81;99831.63;5074672;28;20068;-68
2023/02/03 11:36:32;;;;;;;0.60;0.60;;;;;;;1.72;89.11;99828.31;5086848;28;20045;-68
2023/02/03 11:39:23;;;;;;;2.70;1.58;;;;;;;1.72;89.26;99820.78;5094564;28;20070;-67
2023/02/03 11:41:53;;;;;;;0.30;0.30;;;;;;;1.70;89.08;99814.84;5094577;28;20051;-67
2023/02/03 11:44:28;;;;;;;1.65;1.55;;;;;;;1.78;88.62;99803.38;5094597;28;20056;-66
2023/02/03 11:47:02;;;;;;;0.35;0.35;;;;;;;1.83;89.47;99794.31;5094921;28;20047;-67
2023/02/03 11:49:58;;;;;;;0.65;0.65;;;;;;;1.91;89.66;99790.44;5094525;28;20086;-67
2023/02/03 11:52:48;;;;;;;0.40;0.40;;;;;;;1.91;88.78;99782.88;5094416;28;20086;-66
2023/02/03 11:55:43;;;;;;;0.40;0.40;;;;;;;1.84;89.35;99773.41;5094790;28;20093;-67
2023/02/03 11:58:39;;;;;;;0.50;0.50;;;;;;;1.79;89.36;99759.81;5094614;28;20093;-66
2023/02/03 12:01:19;;;;;;;0.43;0.43;;;;;;;1.77;89.38;99751.38;5094376;28;20055;-66
2023/02/03 12:04:14;;;;;;;0.30;0.30;;;;;;;1.74;89.57;99746.22;5091225;28;20402;-67
2023/02/03 12:07:02;;;;;;;0.88;0.70;;;;;;;1.68;89.45;99730.94;5083990;28;20048;-66